PWSweather.com
Personal Weather Stations
Station Observations
PENICUIKWS
PenicuikGB

PenicuikGB

Lat: 55.830932, Lon: -3.224533000000065

Elevation: 166

Station Type: Fine Offset

http://weather.penicuik.org

High Low Average
Temperature 62.8°F17.1°C 51.3°F10.7°C 54.6°F12.6°C
Dew Point 54.4°F12.4°C 47.0°F8.3°C 50.1°F10.1°C
Winds 6.8 mph 10.9 kmh 1.0 mph 1.6 kmh 4.0 mph SW6.4 kmh SW
Wind Gusts 13.0 mph20.9 kmh 1.6 mph2.6 kmh 6.0 mph9.7 kmh
Humidity 98% 66% 85%
Pressure 29.94 in1013.9 mb 29.76 in1007.8 mb -
Precipitation 0.28 in7.1 mm - -
Hour Temp Dew Point Humidity Winds Wind Gusts Pressure Precip Precip Rate Daily Precip Total
12:00 AM 52.0°F11.1°C 47.0°F8.3°C 83% 6.0 mph W9.7 kmh W 11.4 mph18.3 kmh 29.85 in1010.8 mb 0.00 in0.0 mm 0.00 in0.0 mm 0.00 in0.0 mm
12:15 AM 52.0°F11.1°C 47.0°F8.3°C 83% 6.6 mph SSE10.6 kmh SSE 8.3 mph13.4 kmh 29.85 in1010.8 mb 0.00 in0.0 mm 0.00 in0.0 mm 0.00 in0.0 mm
12:30 AM 52.3°F11.3°C 47.3°F8.5°C 83% 5.5 mph WNW8.9 kmh WNW 7.6 mph12.2 kmh 29.85 in1010.8 mb 0.00 in0.0 mm 0.00 in0.0 mm 0.00 in0.0 mm
01:00 AM 52.0°F11.1°C 47.6°F8.7°C 85% 5.0 mph N8.0 kmh N 10.7 mph17.2 kmh 29.86 in1011.2 mb 0.00 in0.0 mm 0.00 in0.0 mm 0.00 in0.0 mm
01:15 AM 52.5°F11.4°C 47.5°F8.6°C 83% 4.0 mph WSW6.4 kmh WSW 8.3 mph13.4 kmh 29.86 in1011.2 mb 0.00 in0.0 mm 0.00 in0.0 mm 0.00 in0.0 mm
02:00 AM 52.7°F11.5°C 47.7°F8.7°C 83% 4.0 mph NW6.4 kmh NW 6.9 mph11.1 kmh 29.85 in1010.8 mb 0.00 in0.0 mm 0.00 in0.0 mm 0.00 in0.0 mm
02:15 AM 52.3°F11.3°C 47.7°F8.7°C 84% 5.0 mph NW8.0 kmh NW 8.3 mph13.4 kmh 29.85 in1010.8 mb 0.00 in0.0 mm 0.00 in0.0 mm 0.00 in0.0 mm
02:30 AM 52.3°F11.3°C 48.0°F8.9°C 85% 6.6 mph W10.6 kmh W 12.1 mph19.5 kmh 29.86 in1011.2 mb 0.00 in0.0 mm 0.00 in0.0 mm 0.00 in0.0 mm
02:45 AM 52.0°F11.1°C 47.9°F8.8°C 86% 5.8 mph NW9.3 kmh NW 9.2 mph14.8 kmh 29.86 in1011.2 mb 0.00 in0.0 mm 0.00 in0.0 mm 0.00 in0.0 mm
03:00 AM 51.8°F11.0°C 48.1°F8.9°C 87% 6.2 mph W10.0 kmh W 11.4 mph18.3 kmh 29.86 in1011.2 mb 0.00 in0.0 mm 0.00 in0.0 mm 0.00 in0.0 mm
03:15 AM 52.0°F11.1°C 48.5°F9.2°C 88% 6.6 mph W10.6 kmh W 13.0 mph20.9 kmh 29.86 in1011.2 mb 0.00 in0.0 mm 0.00 in0.0 mm 0.00 in0.0 mm
03:30 AM 51.6°F10.9°C 48.5°F9.2°C 89% 4.8 mph SW7.7 kmh SW 6.9 mph11.1 kmh 29.86 in1011.2 mb 0.00 in0.0 mm 0.00 in0.0 mm 0.00 in0.0 mm
03:45 AM 51.4°F10.8°C 48.6°F9.2°C 90% 5.8 mph SW9.3 kmh SW 10.7 mph17.2 kmh 29.87 in1011.5 mb 0.00 in0.0 mm 0.00 in0.0 mm 0.00 in0.0 mm
04:00 AM 51.6°F10.9°C 48.5°F9.2°C 89% 6.8 mph NW10.9 kmh NW 13.0 mph20.9 kmh 29.87 in1011.5 mb 0.00 in0.0 mm 0.00 in0.0 mm 0.00 in0.0 mm
04:15 AM 51.6°F10.9°C 48.2°F9.0°C 88% 5.0 mph SE8.0 kmh SE 6.0 mph9.7 kmh 29.87 in1011.5 mb 0.00 in0.0 mm 0.00 in0.0 mm 0.00 in0.0 mm
04:30 AM 51.4°F10.8°C 48.3°F9.1°C 89% 5.3 mph NNW8.5 kmh NNW 6.9 mph11.1 kmh 29.88 in1011.9 mb 0.00 in0.0 mm 0.00 in0.0 mm 0.00 in0.0 mm
04:45 AM 51.6°F10.9°C 48.5°F9.2°C 89% 4.6 mph SW7.4 kmh SW 7.6 mph12.2 kmh 29.88 in1011.9 mb 0.00 in0.0 mm 0.00 in0.0 mm 0.00 in0.0 mm
05:00 AM 51.6°F10.9°C 48.5°F9.2°C 89% 5.6 mph SW9.0 kmh SW 8.3 mph13.4 kmh 29.88 in1011.9 mb 0.00 in0.0 mm 0.00 in0.0 mm 0.00 in0.0 mm
05:30 AM 51.6°F10.9°C 48.5°F9.2°C 89% 3.1 mph NE5.0 kmh NE 4.5 mph7.2 kmh 29.89 in1012.2 mb 0.00 in0.0 mm 0.00 in0.0 mm 0.00 in0.0 mm
05:45 AM 51.6°F10.9°C 48.5°F9.2°C 89% 4.7 mph SW7.6 kmh SW 7.6 mph12.2 kmh 29.90 in1012.5 mb 0.00 in0.0 mm 0.00 in0.0 mm 0.00 in0.0 mm
06:00 AM 51.8°F11.0°C 48.4°F9.1°C 88% 5.4 mph SW8.7 kmh SW 8.3 mph13.4 kmh 29.89 in1012.2 mb 0.00 in0.0 mm 0.00 in0.0 mm 0.00 in0.0 mm
06:15 AM 51.6°F10.9°C 48.8°F9.3°C 90% 4.0 mph WSW6.4 kmh WSW 6.0 mph9.7 kmh 29.90 in1012.5 mb 0.00 in0.0 mm 0.00 in0.0 mm 0.00 in0.0 mm
06:30 AM 51.3°F10.7°C 48.4°F9.1°C 90% 3.1 mph W5.0 kmh W 4.5 mph7.2 kmh 29.90 in1012.5 mb 0.00 in0.0 mm 0.00 in0.0 mm 0.00 in0.0 mm
06:45 AM 51.6°F10.9°C 48.8°F9.3°C 90% 3.3 mph WNW5.3 kmh WNW 6.9 mph11.1 kmh 29.91 in1012.9 mb 0.00 in0.0 mm 0.00 in0.0 mm 0.00 in0.0 mm
07:00 AM 52.2°F11.2°C 49.0°F9.4°C 89% 3.7 mph NW6.0 kmh NW 6.0 mph9.7 kmh 29.91 in1012.9 mb 0.00 in0.0 mm 0.00 in0.0 mm 0.00 in0.0 mm
07:15 AM 52.5°F11.4°C 49.1°F9.5°C 88% 3.4 mph SE5.5 kmh SE 4.5 mph7.2 kmh 29.90 in1012.5 mb 0.00 in0.0 mm 0.00 in0.0 mm 0.00 in0.0 mm
07:30 AM 52.7°F11.5°C 49.3°F9.6°C 88% 4.6 mph NW7.4 kmh NW 6.9 mph11.1 kmh 29.91 in1012.9 mb 0.00 in0.0 mm 0.00 in0.0 mm 0.00 in0.0 mm
07:45 AM 52.7°F11.5°C 49.6°F9.8°C 89% 3.0 mph ENE4.8 kmh ENE 6.0 mph9.7 kmh 29.92 in1013.2 mb 0.00 in0.0 mm 0.00 in0.0 mm 0.00 in0.0 mm
08:00 AM 54.1°F12.3°C 49.7°F9.8°C 85% 2.9 mph ESE4.7 kmh ESE 6.9 mph11.1 kmh 29.92 in1013.2 mb 0.00 in0.0 mm 0.00 in0.0 mm 0.00 in0.0 mm
08:15 AM 54.9°F12.7°C 49.5°F9.7°C 82% 3.9 mph W6.3 kmh W 8.3 mph13.4 kmh 29.93 in1013.5 mb 0.00 in0.0 mm 0.00 in0.0 mm 0.00 in0.0 mm
08:30 AM 55.0°F12.8°C 49.3°F9.6°C 81% 3.2 mph SE5.1 kmh SE 3.8 mph6.1 kmh 29.93 in1013.5 mb 0.00 in0.0 mm 0.00 in0.0 mm 0.00 in0.0 mm
08:45 AM 55.0°F12.8°C 49.0°F9.4°C 80% 3.4 mph W5.5 kmh W 6.9 mph11.1 kmh 29.93 in1013.5 mb 0.00 in0.0 mm 0.00 in0.0 mm 0.00 in0.0 mm
09:00 AM 54.5°F12.5°C 49.1°F9.5°C 82% 3.1 mph S5.0 kmh S 6.9 mph11.1 kmh 29.93 in1013.5 mb 0.00 in0.0 mm 0.00 in0.0 mm 0.00 in0.0 mm
09:15 AM 54.9°F12.7°C 49.5°F9.7°C 82% 4.5 mph SW7.2 kmh SW 6.9 mph11.1 kmh 29.93 in1013.5 mb 0.00 in0.0 mm 0.00 in0.0 mm 0.00 in0.0 mm
09:30 AM 55.8°F13.2°C 50.0°F10.0°C 81% 3.0 mph S4.8 kmh S 4.5 mph7.2 kmh 29.93 in1013.5 mb 0.00 in0.0 mm 0.00 in0.0 mm 0.00 in0.0 mm
09:45 AM 56.1°F13.4°C 49.7°F9.8°C 79% 3.4 mph WSW5.5 kmh WSW 6.0 mph9.7 kmh 29.92 in1013.2 mb 0.00 in0.0 mm 0.00 in0.0 mm 0.00 in0.0 mm
10:00 AM 56.3°F13.5°C 49.9°F9.9°C 79% 4.0 mph S6.4 kmh S 7.6 mph12.2 kmh 29.92 in1013.2 mb 0.00 in0.0 mm 0.00 in0.0 mm 0.00 in0.0 mm
10:15 AM 57.7°F14.3°C 50.9°F10.5°C 78% 4.7 mph SW7.6 kmh SW 6.9 mph11.1 kmh 29.93 in1013.5 mb 0.00 in0.0 mm 0.00 in0.0 mm 0.00 in0.0 mm
10:30 AM 59.2°F15.1°C 50.5°F10.3°C 73% 4.1 mph NNE6.6 kmh NNE 5.4 mph8.7 kmh 29.91 in1012.9 mb 0.00 in0.0 mm 0.00 in0.0 mm 0.00 in0.0 mm
11:15 AM 60.6°F15.9°C 50.8°F10.4°C 70% 3.7 mph SW6.0 kmh SW 5.4 mph8.7 kmh 29.94 in1013.9 mb 0.00 in0.0 mm 0.00 in0.0 mm 0.00 in0.0 mm
11:30 AM 61.5°F16.4°C 50.5°F10.3°C 67% 4.0 mph SW6.4 kmh SW 6.0 mph9.7 kmh 29.94 in1013.9 mb 0.00 in0.0 mm 0.00 in0.0 mm 0.00 in0.0 mm
12:00 PM 62.8°F17.1°C 51.3°F10.7°C 66% 5.0 mph WSW8.0 kmh WSW 8.3 mph13.4 kmh 29.94 in1013.9 mb 0.00 in0.0 mm 0.00 in0.0 mm 0.00 in0.0 mm
12:30 PM 61.0°F16.1°C 50.8°F10.4°C 69% 5.5 mph W8.9 kmh W 9.2 mph14.8 kmh 29.93 in1013.5 mb 0.00 in0.0 mm 0.00 in0.0 mm 0.00 in0.0 mm
12:45 PM 60.3°F15.7°C 50.5°F10.3°C 70% 3.7 mph SW6.0 kmh SW 9.8 mph15.8 kmh 29.94 in1013.9 mb 0.00 in0.0 mm 0.00 in0.0 mm 0.00 in0.0 mm
01:00 PM 59.4°F15.2°C 48.8°F9.3°C 68% 6.3 mph SSE10.1 kmh SSE 9.2 mph14.8 kmh 29.93 in1013.5 mb 0.00 in0.0 mm 0.00 in0.0 mm 0.00 in0.0 mm
01:15 PM 59.0°F15.0°C 49.2°F9.6°C 70% 4.0 mph E6.4 kmh E 8.3 mph13.4 kmh 29.94 in1013.9 mb 0.00 in0.0 mm 0.00 in0.0 mm 0.00 in0.0 mm
01:30 PM 59.4°F15.2°C 49.6°F9.8°C 70% 3.8 mph SW6.1 kmh SW 6.9 mph11.1 kmh 29.94 in1013.9 mb 0.00 in0.0 mm 0.00 in0.0 mm 0.00 in0.0 mm
01:45 PM 59.7°F15.4°C 49.9°F9.9°C 70% 3.6 mph NNE5.8 kmh NNE 4.5 mph7.2 kmh 29.94 in1013.9 mb 0.00 in0.0 mm 0.00 in0.0 mm 0.00 in0.0 mm
02:00 PM 58.5°F14.7°C 49.1°F9.5°C 71% 4.5 mph WSW7.2 kmh WSW 7.6 mph12.2 kmh 29.94 in1013.9 mb 0.00 in0.0 mm 0.00 in0.0 mm 0.00 in0.0 mm
02:15 PM 58.3°F14.6°C 49.7°F9.8°C 73% 4.2 mph SE6.8 kmh SE 5.4 mph8.7 kmh 29.94 in1013.9 mb 0.00 in0.0 mm 0.00 in0.0 mm 0.00 in0.0 mm
02:30 PM 57.9°F14.4°C 49.7°F9.8°C 74% 3.8 mph WSW6.1 kmh WSW 8.3 mph13.4 kmh 29.94 in1013.9 mb 0.00 in0.0 mm 0.00 in0.0 mm 0.00 in0.0 mm
02:45 PM 57.6°F14.2°C 49.3°F9.6°C 74% 2.8 mph SW4.5 kmh SW 4.5 mph7.2 kmh 29.93 in1013.5 mb 0.00 in0.0 mm 0.00 in0.0 mm 0.00 in0.0 mm
03:00 PM 57.6°F14.2°C 49.0°F9.4°C 73% 3.7 mph SW6.0 kmh SW 5.4 mph8.7 kmh 29.93 in1013.5 mb 0.00 in0.0 mm 0.00 in0.0 mm 0.00 in0.0 mm
03:15 PM 56.7°F13.7°C 49.2°F9.6°C 76% 2.5 mph NNE4.0 kmh NNE 3.1 mph5.0 kmh 29.93 in1013.5 mb 0.00 in0.0 mm 0.00 in0.0 mm 0.00 in0.0 mm
03:30 PM 56.1°F13.4°C 49.4°F9.7°C 78% 3.1 mph WSW5.0 kmh WSW 5.4 mph8.7 kmh 29.92 in1013.2 mb 0.01 in0.3 mm 0.04 in1.0 mm 0.01 in0.3 mm
03:45 PM 56.1°F13.4°C 50.4°F10.2°C 81% 3.4 mph WSW5.5 kmh WSW 5.4 mph8.7 kmh 29.91 in1012.9 mb 0.01 in0.3 mm 0.00 in0.0 mm 0.01 in0.3 mm
04:00 PM 55.9°F13.3°C 50.9°F10.5°C 83% 2.2 mph ENE3.5 kmh ENE 4.5 mph7.2 kmh 29.92 in1013.2 mb 0.01 in0.3 mm 0.00 in0.0 mm 0.01 in0.3 mm
04:30 PM 55.6°F13.1°C 50.8°F10.4°C 84% 2.3 mph N3.7 kmh N 3.8 mph6.1 kmh 29.90 in1012.5 mb 0.00 in0.0 mm 0.00 in0.0 mm 0.01 in0.3 mm
04:45 PM 55.6°F13.1°C 50.8°F10.4°C 84% 2.5 mph N4.0 kmh N 3.8 mph6.1 kmh 29.89 in1012.2 mb 0.00 in0.0 mm 0.00 in0.0 mm 0.01 in0.3 mm
05:00 PM 55.0°F12.8°C 50.9°F10.5°C 86% 2.2 mph NW3.5 kmh NW 4.5 mph7.2 kmh 29.89 in1012.2 mb 0.00 in0.0 mm 0.00 in0.0 mm 0.01 in0.3 mm
05:15 PM 54.5°F12.5°C 51.0°F10.6°C 88% 1.5 mph NNW2.4 kmh NNW 3.1 mph5.0 kmh 29.88 in1011.9 mb 0.00 in0.0 mm 0.00 in0.0 mm 0.01 in0.3 mm
05:45 PM 53.6°F12.0°C 50.7°F10.4°C 90% 2.0 mph N3.2 kmh N 3.1 mph5.0 kmh 29.87 in1011.5 mb 0.00 in0.0 mm 0.00 in0.0 mm 0.01 in0.3 mm
06:00 PM 53.6°F12.0°C 51.0°F10.6°C 91% 2.0 mph WNW3.2 kmh WNW 3.1 mph5.0 kmh 29.86 in1011.2 mb 0.01 in0.3 mm 0.01 in0.3 mm 0.02 in0.5 mm
06:15 PM 53.4°F11.9°C 51.2°F10.7°C 92% 1.7 mph NW2.7 kmh NW 2.2 mph3.5 kmh 29.86 in1011.2 mb 0.02 in0.5 mm 0.04 in1.0 mm 0.04 in1.0 mm
06:30 PM 53.1°F11.7°C 50.8°F10.4°C 92% 2.5 mph N4.0 kmh N 4.5 mph7.2 kmh 29.84 in1010.5 mb 0.04 in1.0 mm 0.08 in2.0 mm 0.05 in1.3 mm
07:00 PM 53.1°F11.7°C 51.7°F10.9°C 95% 2.3 mph N3.7 kmh N 3.8 mph6.1 kmh 29.84 in1010.5 mb 0.06 in1.5 mm 0.04 in1.0 mm 0.08 in2.0 mm
07:15 PM 53.1°F11.7°C 51.7°F10.9°C 95% 4.3 mph SW6.9 kmh SW 8.3 mph13.4 kmh 29.83 in1010.2 mb 0.07 in1.8 mm 0.04 in1.0 mm 0.11 in2.8 mm
07:30 PM 53.1°F11.7°C 52.0°F11.1°C 96% 2.5 mph NNW4.0 kmh NNW 3.1 mph5.0 kmh 29.84 in1010.5 mb 0.09 in2.3 mm 0.08 in2.0 mm 0.14 in3.6 mm
07:45 PM 53.2°F11.8°C 52.1°F11.2°C 96% 2.4 mph WNW3.9 kmh WNW 3.8 mph6.1 kmh 29.82 in1009.8 mb 0.09 in2.3 mm 0.00 in0.0 mm 0.17 in4.3 mm
08:00 PM 53.2°F11.8°C 52.4°F11.3°C 97% 2.0 mph N3.2 kmh N 3.1 mph5.0 kmh 29.83 in1010.2 mb 0.11 in2.8 mm 0.03 in0.8 mm 0.19 in4.8 mm
08:15 PM 53.2°F11.8°C 52.4°F11.3°C 97% 2.1 mph N3.4 kmh N 6.0 mph9.7 kmh 29.81 in1009.5 mb 0.09 in2.3 mm 0.00 in0.0 mm 0.20 in5.1 mm
08:30 PM 53.4°F11.9°C 52.9°F11.6°C 98% 2.0 mph NNW3.2 kmh NNW 3.8 mph6.1 kmh 29.80 in1009.1 mb 0.08 in2.0 mm 0.00 in0.0 mm 0.22 in5.6 mm
08:45 PM 53.6°F12.0°C 52.8°F11.6°C 97% 1.5 mph SE2.4 kmh SE 3.1 mph5.0 kmh 29.80 in1009.1 mb 0.07 in1.8 mm 0.00 in0.0 mm 0.24 in6.1 mm
09:00 PM 54.0°F12.2°C 53.1°F11.7°C 97% 1.7 mph SW2.7 kmh SW 3.1 mph5.0 kmh 29.79 in1008.8 mb 0.07 in1.8 mm 0.00 in0.0 mm 0.26 in6.6 mm
09:45 PM 54.7°F12.6°C 53.9°F12.2°C 97% 2.1 mph S3.4 kmh S 3.1 mph5.0 kmh 29.78 in1008.5 mb 0.04 in1.0 mm 0.00 in0.0 mm 0.27 in6.9 mm
10:00 PM 55.0°F12.8°C 54.2°F12.3°C 97% 2.0 mph NNW3.2 kmh NNW 3.8 mph6.1 kmh 29.78 in1008.5 mb 0.02 in0.5 mm 0.00 in0.0 mm 0.28 in7.1 mm
10:15 PM 55.0°F12.8°C 54.2°F12.3°C 97% 1.0 mph N1.6 kmh N 1.6 mph2.6 kmh 29.78 in1008.5 mb 0.01 in0.3 mm 0.00 in0.0 mm 0.28 in7.1 mm
10:45 PM 55.2°F12.9°C 54.4°F12.4°C 97% 1.4 mph SSW2.3 kmh SSW 3.8 mph6.1 kmh 29.76 in1007.8 mb 0.01 in0.3 mm 0.00 in0.0 mm 0.28 in7.1 mm
11:15 PM 55.2°F12.9°C 54.4°F12.4°C 97% 2.1 mph NNW3.4 kmh NNW 3.8 mph6.1 kmh 29.77 in1008.1 mb 0.01 in0.3 mm 0.00 in0.0 mm 0.01 in0.3 mm
11:30 PM 55.0°F12.8°C 54.2°F12.3°C 97% 1.9 mph N3.1 kmh N 3.1 mph5.0 kmh 29.76 in1007.8 mb 0.01 in0.3 mm 0.00 in0.0 mm 0.01 in0.3 mm
11:45 PM 55.0°F12.8°C 54.2°F12.3°C 97% 2.7 mph SE4.3 kmh SE 3.8 mph6.1 kmh 29.76 in1007.8 mb 0.01 in0.3 mm 0.00 in0.0 mm 0.01 in0.3 mm